Time;durP1;ratioP1;P1;durP2;ratioP2;P2;SDS_P1;SDS_P2;PMS_P1;PMS_P2;Temp;Humidity;BMP_temperature;BMP_pressure;BME280_temperature;BME280_humidity;BME280_pressure;Samples;Min_cycle;Max_cycle;Signal;HPM_P1;HPM_P2
2023/08/22 00:01:07;;;;;;;14.10;9.38;;;;;;;23.78;75.08;100224.89;1715228;84;21026;-61
2023/08/22 00:03:37;;;;;;;12.00;9.60;;;;;;;23.77;74.26;100227.98;1715327;84;21010;-60
2023/08/22 00:06:07;;;;;;;11.85;9.35;;;;;;;23.77;73.62;100221.82;1715140;84;21073;-61
2023/08/22 00:08:37;;;;;;;11.80;9.98;;;;;;;23.78;73.33;100224.89;1715505;84;21450;-61
2023/08/22 00:11:07;;;;;;;10.80;9.55;;;;;;;23.76;73.06;100223.51;1715482;84;21039;-60
2023/08/22 00:13:37;;;;;;;13.28;9.40;;;;;;;23.74;72.49;100221.00;1715314;84;21035;-62
2023/08/22 00:16:06;;;;;;;10.48;9.38;;;;;;;23.73;72.60;100217.93;1715206;84;21467;-62
2023/08/22 00:18:35;;;;;;;12.55;9.25;;;;;;;23.75;72.46;100218.48;1715618;84;21007;-61
2023/08/22 00:21:05;;;;;;;16.12;9.43;;;;;;;23.75;71.98;100218.48;1715388;84;21094;-62
2023/08/22 00:23:35;;;;;;;13.08;9.63;;;;;;;23.75;72.03;100219.87;1735143;81;21077;-61
2023/08/22 00:26:03;;;;;;;11.50;9.60;;;;;;;23.75;71.89;100215.68;1761417;81;21462;-61
2023/08/22 00:28:35;;;;;;;10.30;9.25;;;;;;;23.76;72.01;100221.55;1761480;81;21022;-61
2023/08/22 00:31:05;;;;;;;14.87;10.05;;;;;;;23.75;71.90;100209.25;1761365;81;21061;-62
2023/08/22 00:33:34;;;;;;;11.43;9.33;;;;;;;23.74;71.69;100214.57;1730277;81;21054;-61
2023/08/22 00:36:04;;;;;;;13.75;9.98;;;;;;;23.71;71.57;100212.63;1761460;81;21034;-60
2023/08/22 00:38:34;;;;;;;11.63;9.73;;;;;;;23.68;71.71;100207.61;1761333;81;21007;-61
2023/08/22 00:41:05;;;;;;;12.05;9.08;;;;;;;23.67;71.92;100210.13;1761380;81;21078;-61
2023/08/22 00:43:35;;;;;;;11.20;8.93;;;;;;;23.66;72.44;100215.45;1761616;81;21069;-62
2023/08/22 00:46:06;;;;;;;13.10;9.65;;;;;;;23.66;72.27;100216.02;1761707;81;21070;-62
2023/08/22 00:48:35;;;;;;;10.60;9.25;;;;;;;23.61;72.33;100208.49;1761632;81;21089;-62
2023/08/22 00:51:05;;;;;;;10.60;9.28;;;;;;;23.57;72.42;100210.19;1761524;81;21096;-61
2023/08/22 00:53:35;;;;;;;10.70;8.75;;;;;;;23.54;72.48;100196.75;1754816;81;21121;-61
2023/08/22 00:56:04;;;;;;;10.90;8.70;;;;;;;23.54;72.67;100201.51;1754650;81;21014;-62
2023/08/22 00:58:33;;;;;;;9.48;8.50;;;;;;;23.52;72.72;100203.76;1761343;81;21010;-61
2023/08/22 01:01:05;;;;;;;10.30;8.25;;;;;;;23.50;72.75;100199.02;1761585;81;21019;-62
2023/08/22 01:03:34;;;;;;;11.50;8.23;;;;;;;23.48;72.85;100206.30;1761367;81;21544;-61
2023/08/22 01:06:09;;;;;;;10.40;8.20;;;;;;;23.48;73.04;100209.66;1761529;81;21073;-63
2023/08/22 01:08:39;;;;;;;10.70;8.88;;;;;;;23.45;72.83;100206.03;1761589;81;21002;-62
2023/08/22 01:11:20;;;;;;;10.18;8.38;;;;;;;23.42;73.09;100206.61;1761676;81;21057;-62
2023/08/22 01:13:51;;;;;;;10.78;8.78;;;;;;;23.40;73.22;100208.27;1761406;81;21497;-61
2023/08/22 01:16:20;;;;;;;9.60;8.50;;;;;;;23.39;73.41;100214.98;1761622;81;21038;-61
2023/08/22 01:18:50;;;;;;;11.95;8.15;;;;;;;23.37;73.28;100216.67;1761820;81;21050;-61
2023/08/22 01:21:20;;;;;;;10.82;8.70;;;;;;;23.37;73.22;100222.82;1761636;81;21023;-61
2023/08/22 01:23:49;;;;;;;11.25;8.25;;;;;;;23.33;73.17;100216.97;1735390;81;21529;-61
2023/08/22 01:26:19;;;;;;;10.55;8.28;;;;;;;23.28;73.22;100217.55;1713175;84;21078;-62
2023/08/22 01:28:53;;;;;;;10.30;7.90;;;;;;;23.24;73.38;100228.47;1713065;84;21082;-60
2023/08/22 01:31:35;;;;;;;9.03;8.13;;;;;;;23.24;73.66;100223.44;1713016;84;21525;-62
2023/08/22 01:34:19;;;;;;;8.83;7.75;;;;;;;23.23;73.69;100223.16;1708075;84;21086;-62
2023/08/22 01:36:51;;;;;;;9.20;7.40;;;;;;;23.18;73.80;100228.77;1708787;83;21054;-61
2023/08/22 01:39:20;;;;;;;8.35;7.35;;;;;;;23.14;74.14;100224.31;1712994;84;21126;-61
2023/08/22 01:41:50;;;;;;;8.65;7.75;;;;;;;23.07;74.38;100214.84;1713384;82;21153;-60
2023/08/22 01:44:21;;;;;;;10.10;7.62;;;;;;;23.05;74.49;100224.07;1713156;84;21074;-60
2023/08/22 01:46:50;;;;;;;11.88;8.40;;;;;;;23.01;74.67;100216.54;1713198;82;21063;-63
2023/08/22 01:49:19;;;;;;;9.63;7.78;;;;;;;22.96;74.91;100228.56;1713032;84;21042;-61
2023/08/22 01:51:48;;;;;;;11.28;8.38;;;;;;;22.92;75.19;100231.66;1713163;84;21416;-63
2023/08/22 01:54:18;;;;;;;11.20;8.08;;;;;;;22.89;75.56;100241.16;1712984;84;21023;-61
2023/08/22 01:56:48;;;;;;;9.78;8.30;;;;;;;22.84;75.81;100244.81;1713054;84;21074;-61
2023/08/22 01:59:19;;;;;;;11.28;8.10;;;;;;;22.79;76.11;100236.41;1713010;82;21083;-60
2023/08/22 02:01:50;;;;;;;9.93;7.53;;;;;;;22.75;76.39;100242.25;1713220;84;21079;-61
2023/08/22 02:04:19;;;;;;;11.08;7.75;;;;;;;22.70;76.58;100247.84;1713163;84;21043;-61
2023/08/22 02:06:48;;;;;;;9.20;7.62;;;;;;;22.66;76.76;100243.94;1713021;84;21082;-61
2023/08/22 02:09:20;;;;;;;8.30;7.25;;;;;;;22.60;76.94;100243.67;1713004;82;21051;-61
2023/08/22 02:11:49;;;;;;;10.93;7.33;;;;;;;22.55;77.08;100242.27;1713130;82;21062;-60
2023/08/22 02:14:18;;;;;;;11.70;7.78;;;;;;;22.51;77.27;100248.98;1713129;84;21085;-61
2023/08/22 02:16:48;;;;;;;8.40;7.00;;;;;;;22.46;77.28;100258.20;1713309;84;21118;-62
2023/08/22 02:19:18;;;;;;;8.40;7.20;;;;;;;22.42;77.41;100260.44;1713146;84;21031;-61
2023/08/22 02:21:48;;;;;;;7.90;7.08;;;;;;;22.37;77.54;100268.25;1713319;82;21015;-60
2023/08/22 02:24:16;;;;;;;9.90;7.15;;;;;;;22.34;77.79;100266.58;1714076;82;21502;-60
2023/08/22 02:26:47;;;;;;;8.28;7.40;;;;;;;22.31;77.80;100266.58;1715329;84;20975;-61
2023/08/22 02:29:16;;;;;;;8.93;7.55;;;;;;;22.27;77.87;100254.85;1715415;84;21470;-62
2023/08/22 02:31:46;;;;;;;8.75;7.08;;;;;;;22.22;78.03;100264.06;1715534;82;21052;-60
2023/08/22 02:34:15;;;;;;;9.43;6.95;;;;;;;22.19;78.11;100256.25;1715499;84;21042;-61
2023/08/22 02:36:45;;;;;;;8.13;6.72;;;;;;;22.14;78.32;100267.41;1715538;84;21018;-61
2023/08/22 02:39:14;;;;;;;7.65;6.70;;;;;;;22.10;78.43;100272.67;1715521;83;21003;-61
2023/08/22 02:41:44;;;;;;;8.95;6.90;;;;;;;22.04;78.26;100275.17;1715717;84;20994;-61
2023/08/22 02:44:13;;;;;;;10.25;7.50;;;;;;;22.02;78.37;100266.77;1715397;83;21081;-62
2023/08/22 02:46:42;;;;;;;9.98;6.85;;;;;;;21.98;78.51;100276.25;1715779;84;21718;-62
2023/08/22 02:49:11;;;;;;;9.18;6.72;;;;;;;21.96;78.52;100273.45;1715540;83;21030;-61
2023/08/22 02:51:41;;;;;;;8.80;7.33;;;;;;;21.95;78.50;100286.56;1715443;84;21046;-61
2023/08/22 02:54:10;;;;;;;8.95;7.08;;;;;;;21.94;78.58;100279.86;1686034;84;21078;-62
2023/08/22 02:56:40;;;;;;;9.40;6.55;;;;;;;21.93;78.46;100285.16;1715402;84;21030;-61
2023/08/22 02:59:09;;;;;;;7.17;6.17;;;;;;;21.88;78.05;100288.78;1715317;83;21073;-61
2023/08/22 03:01:38;;;;;;;11.50;6.85;;;;;;;21.83;78.20;100292.95;1715358;84;21065;-62
2023/08/22 03:04:08;;;;;;;8.18;6.70;;;;;;;21.76;78.09;100293.77;1715636;84;21447;-62
2023/08/22 03:06:38;;;;;;;8.30;6.67;;;;;;;21.71;78.17;100293.20;1715537;83;21038;-61
2023/08/22 03:09:08;;;;;;;7.95;6.12;;;;;;;21.67;78.25;100293.45;1715333;82;21010;-59
2023/08/22 03:11:37;;;;;;;7.42;6.05;;;;;;;21.64;78.43;100290.38;1715410;84;21479;-59
2023/08/22 03:14:08;;;;;;;7.22;6.22;;;;;;;21.63;78.46;100289.55;1715570;84;21028;-60
2023/08/22 03:16:37;;;;;;;10.30;6.65;;;;;;;21.63;78.28;100302.64;1715356;84;21108;-62
2023/08/22 03:19:07;;;;;;;8.40;6.35;;;;;;;21.59;78.41;100291.20;1715558;84;21090;-61
2023/08/22 03:21:36;;;;;;;7.83;6.00;;;;;;;21.63;78.42;100299.86;1715419;82;21447;-62
2023/08/22 03:24:06;;;;;;;6.87;5.97;;;;;;;21.64;78.10;100302.38;1715559;82;21071;-61
2023/08/22 03:26:36;;;;;;;10.85;5.92;;;;;;;21.60;77.83;100301.80;1709005;83;21443;-62
2023/08/22 03:29:06;;;;;;;8.28;5.80;;;;;;;21.56;77.94;100301.50;1708754;82;21030;-61
2023/08/22 03:31:34;;;;;;;8.53;5.58;;;;;;;21.55;77.78;100308.19;1708643;83;21580;-62
2023/08/22 03:34:03;;;;;;;9.58;6.03;;;;;;;21.53;77.47;100308.19;1715446;83;21003;-61
2023/08/22 03:36:33;;;;;;;7.60;5.35;;;;;;;21.51;77.30;100315.42;1708618;82;21078;-62
2023/08/22 03:39:05;;;;;;;6.75;5.53;;;;;;;21.49;77.00;100313.47;1715516;82;21014;-62
2023/08/22 03:41:36;;;;;;;13.62;5.53;;;;;;;21.47;76.62;100310.95;1715332;82;21751;-60
2023/08/22 03:44:05;;;;;;;6.80;5.47;;;;;;;21.45;76.66;100312.30;1715346;84;21057;-59
2023/08/22 03:46:36;;;;;;;6.40;5.70;;;;;;;21.41;76.31;100312.56;1715226;84;21517;-62
2023/08/22 03:49:10;;;;;;;8.38;5.87;;;;;;;21.35;76.26;100324.23;1715463;84;21026;-61
2023/08/22 03:51:41;;;;;;;7.55;5.62;;;;;;;21.33;76.43;100320.05;1715604;84;21031;-61
2023/08/22 03:54:10;;;;;;;10.53;5.42;;;;;;;21.29;76.37;100323.09;1715377;83;21090;-63
2023/08/22 03:56:39;;;;;;;5.83;5.22;;;;;;;21.26;76.46;100318.05;1715255;82;21384;-60
2023/08/22 03:59:09;;;;;;;7.15;5.20;;;;;;;21.21;76.45;100323.85;1715375;84;21050;-61
2023/08/22 04:01:38;;;;;;;5.40;4.65;;;;;;;21.21;76.45;100326.64;1715611;84;20990;-60
2023/08/22 04:04:08;;;;;;;6.50;5.10;;;;;;;21.18;76.27;100323.00;1715271;84;21018;-61
2023/08/22 04:06:39;;;;;;;8.15;5.17;;;;;;;21.17;76.23;100328.29;1715278;84;21561;-62
2023/08/22 04:09:12;;;;;;;6.22;4.97;;;;;;;21.16;76.27;100326.61;1715448;82;21018;-60
2023/08/22 04:11:42;;;;;;;6.53;4.62;;;;;;;21.18;76.27;100329.97;1715456;84;21074;-61
2023/08/22 04:14:11;;;;;;;8.48;5.28;;;;;;;21.19;76.31;100328.86;1715183;84;21156;-62
2023/08/22 04:16:40;;;;;;;6.50;4.92;;;;;;;21.21;76.20;100325.80;1715273;84;21470;-61
2023/08/22 04:19:10;;;;;;;6.78;4.80;;;;;;;21.25;75.98;100326.97;1715346;84;21007;-61
2023/08/22 04:21:40;;;;;;;7.28;5.20;;;;;;;21.25;75.81;100327.52;1715483;83;21055;-60
2023/08/22 04:24:10;;;;;;;6.00;4.80;;;;;;;21.26;75.90;100336.17;1720690;81;21057;-67
2023/08/22 04:26:39;;;;;;;7.03;4.87;;;;;;;21.26;75.80;100327.25;1761386;81;21454;-61
2023/08/22 04:29:09;;;;;;;9.25;5.53;;;;;;;21.28;75.66;100326.98;1761635;81;21050;-62
2023/08/22 04:31:40;;;;;;;7.78;4.85;;;;;;;21.28;75.30;100332.56;1761542;81;21019;-61
2023/08/22 04:34:10;;;;;;;7.37;5.08;;;;;;;21.27;75.15;100333.12;1761347;81;21493;-65
2023/08/22 04:36:41;;;;;;;5.67;4.80;;;;;;;21.29;75.05;100336.47;1761157;81;21540;-62
2023/08/22 04:39:10;;;;;;;6.80;4.78;;;;;;;21.30;74.81;100326.16;1761464;81;21003;-61
2023/08/22 04:41:40;;;;;;;6.53;5.20;;;;;;;21.30;74.32;100332.58;1761424;81;21035;-62
2023/08/22 04:44:10;;;;;;;5.87;4.72;;;;;;;21.30;74.06;100337.31;1761068;81;21479;-62
2023/08/22 04:46:39;;;;;;;7.33;4.92;;;;;;;21.33;73.81;100339.55;1761391;81;21496;-62
2023/08/22 04:49:08;;;;;;;5.00;4.50;;;;;;;21.35;73.51;100342.36;1754665;81;21074;-62
2023/08/22 04:51:39;;;;;;;7.08;5.00;;;;;;;21.39;73.43;100339.87;1761830;81;21035;-62
2023/08/22 04:54:08;;;;;;;6.55;4.80;;;;;;;21.43;72.76;100332.08;1761513;81;21540;-61
2023/08/22 04:56:37;;;;;;;6.50;4.58;;;;;;;21.44;72.00;100332.92;1761563;81;21035;-62
2023/08/22 04:59:06;;;;;;;8.55;4.75;;;;;;;21.48;71.26;100331.30;1761701;81;21038;-62
2023/08/22 05:01:37;;;;;;;9.33;5.00;;;;;;;21.50;71.08;100335.50;1761607;81;21054;-62
2023/08/22 05:04:09;;;;;;;9.40;4.87;;;;;;;21.53;70.67;100327.14;1761795;81;21047;-63
2023/08/22 05:06:38;;;;;;;9.68;4.30;;;;;;;21.59;70.41;100337.21;1761628;81;21027;-62
2023/08/22 05:09:09;;;;;;;7.45;4.30;;;;;;;21.63;69.86;100333.32;1761686;81;21026;-61
2023/08/22 05:11:40;;;;;;;9.63;4.97;;;;;;;21.67;68.92;100332.50;1761492;81;21699;-61
2023/08/22 05:14:09;;;;;;;6.35;4.40;;;;;;;21.69;69.15;100343.38;1761470;81;21011;-71
2023/08/22 05:16:44;;;;;;;6.90;4.80;;;;;;;21.74;69.14;100340.62;1761741;81;21442;-62
2023/08/22 05:19:14;;;;;;;7.03;4.50;;;;;;;21.78;69.00;100348.16;1754804;81;21062;-61
2023/08/22 05:21:44;;;;;;;7.45;4.08;;;;;;;21.81;68.58;100337.02;1761723;81;21074;-60
2023/08/22 05:24:13;;;;;;;5.50;4.08;;;;;;;21.82;67.57;100337.30;1730138;81;21466;-62
2023/08/22 05:26:44;;;;;;;6.28;3.87;;;;;;;21.82;67.57;100347.06;1715361;83;21098;-62
2023/08/22 05:29:14;;;;;;;4.95;4.17;;;;;;;21.86;67.08;100348.75;1715272;83;21027;-62
2023/08/22 05:31:43;;;;;;;5.62;4.50;;;;;;;21.84;67.00;100351.26;1715434;84;21055;-61
2023/08/22 05:34:15;;;;;;;6.70;4.78;;;;;;;21.86;67.18;100349.59;1715249;84;21471;-62
2023/08/22 05:36:44;;;;;;;8.90;5.17;;;;;;;21.90;67.35;100349.32;1715471;84;20998;-62
2023/08/22 05:39:13;;;;;;;7.17;4.50;;;;;;;21.90;67.60;100352.67;1715352;84;20991;-62
2023/08/22 05:41:42;;;;;;;9.53;5.15;;;;;;;21.92;68.01;100354.63;1715375;84;21046;-62
2023/08/22 05:44:12;;;;;;;6.95;4.87;;;;;;;21.96;68.13;100351.57;1715271;84;20999;-61
2023/08/22 05:46:42;;;;;;;6.17;4.90;;;;;;;22.00;68.23;100345.73;1715321;84;21026;-62
2023/08/22 05:49:11;;;;;;;9.43;5.08;;;;;;;22.02;68.29;100347.69;1715402;84;21030;-61
2023/08/22 05:51:41;;;;;;;7.78;5.55;;;;;;;22.03;68.41;100341.86;1715303;84;21034;-62
2023/08/22 05:54:10;;;;;;;8.60;6.20;;;;;;;22.03;68.59;100345.20;1715162;82;21459;-62
2023/08/22 05:56:39;;;;;;;9.40;5.92;;;;;;;22.02;68.77;100342.94;1715266;84;21454;-60
2023/08/22 05:59:08;;;;;;;9.30;5.62;;;;;;;22.04;69.19;100348.28;1715355;82;21034;-62
2023/08/22 06:01:37;;;;;;;8.50;5.08;;;;;;;22.08;69.08;100341.03;1715584;82;21074;-62
2023/08/22 06:04:08;;;;;;;6.60;5.47;;;;;;;22.08;68.92;100341.03;1715302;82;21026;-60
2023/08/22 06:06:38;;;;;;;6.35;5.42;;;;;;;22.07;68.41;100339.36;1715657;82;21046;-61
2023/08/22 06:09:07;;;;;;;7.85;6.00;;;;;;;22.02;68.35;100338.75;1715502;83;21023;-61
2023/08/22 06:11:37;;;;;;;8.88;5.75;;;;;;;22.01;68.34;100348.24;1715443;84;21070;-61
2023/08/22 06:14:06;;;;;;;8.60;5.17;;;;;;;22.00;68.31;100347.12;1715274;84;21454;-61
2023/08/22 06:16:35;;;;;;;6.83;5.37;;;;;;;22.01;67.71;100344.61;1715608;84;21061;-62
2023/08/22 06:19:04;;;;;;;6.83;4.65;;;;;;;21.98;67.42;100339.03;1685606;84;21435;-62
2023/08/22 06:21:34;;;;;;;8.50;5.15;;;;;;;22.00;67.51;100344.33;1715484;84;21034;-63
2023/08/22 06:24:04;;;;;;;6.80;4.85;;;;;;;22.04;67.09;100339.91;1715264;84;21132;-61
2023/08/22 06:26:34;;;;;;;6.83;4.80;;;;;;;22.08;66.55;100339.64;1737910;81;21050;-63
2023/08/22 06:29:03;;;;;;;7.28;4.80;;;;;;;22.09;65.52;100336.58;1742755;82;21098;-62
2023/08/22 06:31:32;;;;;;;4.97;4.33;;;;;;;22.13;64.67;100334.10;1742987;82;21011;-62
2023/08/22 06:34:01;;;;;;;6.40;4.03;;;;;;;22.15;64.07;100334.66;1742730;82;21031;-62
2023/08/22 06:36:31;;;;;;;6.62;4.53;;;;;;;22.15;62.47;100336.06;1742740;82;21082;-63
2023/08/22 06:39:01;;;;;;;8.60;4.12;;;;;;;22.18;62.42;100334.67;1742983;82;21031;-61
2023/08/22 06:41:30;;;;;;;5.35;3.70;;;;;;;22.21;60.83;100336.34;1742804;82;21003;-61
2023/08/22 06:44:07;;;;;;;6.45;3.60;;;;;;;22.26;59.29;100334.12;1742824;82;21074;-61
2023/08/22 06:46:36;;;;;;;5.03;3.85;;;;;;;22.34;59.25;100350.33;1742988;82;21028;-63
2023/08/22 06:49:05;;;;;;;6.08;3.60;;;;;;;22.42;57.95;100344.20;1743073;82;21222;-61
2023/08/22 06:51:35;;;;;;;5.67;3.35;;;;;;;22.56;57.01;100343.09;1742811;82;21525;-62
2023/08/22 06:54:06;;;;;;;5.17;3.37;;;;;;;22.76;56.11;100338.37;1742999;82;21071;-62
2023/08/22 06:56:36;;;;;;;6.12;3.02;;;;;;;23.01;55.73;100330.56;1742764;82;21073;-62
2023/08/22 06:59:05;;;;;;;8.83;3.10;;;;;;;23.35;54.48;100327.12;1742807;82;21028;-62
2023/08/22 07:01:34;;;;;;;8.03;3.27;;;;;;;23.76;52.15;100329.84;1742877;82;21043;-62
2023/08/22 07:04:04;;;;;;;5.75;3.12;;;;;;;24.09;51.20;100326.33;1720088;82;21055;-61
2023/08/22 07:06:36;;;;;;;5.60;3.10;;;;;;;24.36;49.95;100322.26;1742657;82;21094;-62
2023/08/22 07:09:05;;;;;;;4.90;2.87;;;;;;;24.65;48.47;100331.55;1744581;82;21078;-62
2023/08/22 07:11:35;;;;;;;4.15;2.80;;;;;;;24.96;47.31;100330.18;1742764;82;21035;-61
2023/08/22 07:14:03;;;;;;;4.15;2.80;;;;;;;25.29;46.99;100326.23;1742899;82;21078;-61
2023/08/22 07:16:33;;;;;;;4.90;3.10;;;;;;;25.57;46.89;100327.34;1742865;82;21037;-63
2023/08/22 07:19:06;;;;;;;5.20;3.33;;;;;;;25.89;46.18;100343.52;1742708;82;21058;-61
2023/08/22 07:21:35;;;;;;;7.33;3.75;;;;;;;26.14;44.98;100340.39;1742957;82;21031;-62
2023/08/22 07:24:05;;;;;;;3.25;2.77;;;;;;;26.46;44.07;100341.64;1744716;82;21067;-62
2023/08/22 07:26:34;;;;;;;10.18;2.47;;;;;;;26.77;42.53;100346.22;1724183;82;21022;-61
2023/08/22 07:29:04;;;;;;;4.30;2.15;;;;;;;26.95;39.26;100331.86;1715434;84;21049;-61
2023/08/22 07:31:33;;;;;;;5.17;2.02;;;;;;;26.97;38.85;100329.56;1708798;82;21034;-63
2023/08/22 07:34:02;;;;;;;8.38;2.30;;;;;;;26.97;38.85;100329.56;1715403;84;21116;-62
2023/08/22 07:36:31;;;;;;;6.83;2.20;;;;;;;27.23;38.20;100332.77;1715260;84;21104;-61
2023/08/22 07:39:00;;;;;;;4.65;1.85;;;;;;;27.42;37.53;100325.11;1715670;84;21086;-62
2023/08/22 07:41:29;;;;;;;5.03;2.20;;;;;;;27.63;37.49;100319.94;1715566;84;21022;-61
2023/08/22 07:43:57;;;;;;;5.83;1.90;;;;;;;27.87;36.81;100329.56;1715371;84;21026;-60
2023/08/22 07:46:26;;;;;;;4.12;1.82;;;;;;;27.97;36.47;100320.34;1715221;83;21027;-61
2023/08/22 07:48:55;;;;;;;9.58;2.10;;;;;;;28.01;35.88;100336.88;1715356;84;21328;-61
2023/08/22 07:51:24;;;;;;;3.08;2.05;;;;;;;28.01;35.34;100339.69;1715310;83;21462;-62
2023/08/22 07:53:53;;;;;;;5.37;2.00;;;;;;;28.01;35.21;100333.22;1708741;83;21070;-62
2023/08/22 07:56:24;;;;;;;5.12;1.92;;;;;;;28.15;34.94;100328.97;1715253;84;21044;-63
2023/08/22 07:58:53;;;;;;;3.02;1.90;;;;;;;28.18;34.41;100331.98;1715203;84;21058;-61
2023/08/22 08:01:22;;;;;;;3.95;1.90;;;;;;;28.28;34.73;100325.31;1715433;82;21003;-62
2023/08/22 08:03:51;;;;;;;5.62;1.85;;;;;;;28.49;34.05;100315.79;1715331;84;21023;-61
2023/08/22 08:06:24;;;;;;;5.12;2.40;;;;;;;28.68;33.86;100327.16;1715206;84;21524;-60
2023/08/22 08:08:54;;;;;;;6.83;2.37;;;;;;;28.90;33.51;100337.64;1715410;83;21022;-63
2023/08/22 08:11:23;;;;;;;6.33;1.90;;;;;;;28.88;31.67;100344.75;1715578;84;21117;-60
2023/08/22 08:13:52;;;;;;;3.55;1.67;;;;;;;28.63;32.38;100345.63;1715326;84;21513;-62
2023/08/22 08:16:21;;;;;;;4.03;1.80;;;;;;;28.52;32.72;100336.30;1715375;84;21062;-61
2023/08/22 08:18:53;;;;;;;3.15;1.60;;;;;;;28.59;32.77;100331.87;1715027;82;21022;-65
2023/08/22 08:21:22;;;;;;;4.85;1.72;;;;;;;28.72;33.50;100331.59;1715363;84;21270;-63
2023/08/22 08:23:51;;;;;;;3.70;1.50;;;;;;;28.66;32.40;100332.88;1714785;84;21060;-63
2023/08/22 08:26:20;;;;;;;3.47;1.77;;;;;;;28.70;32.69;100329.09;1727432;81;21092;-62
2023/08/22 08:28:50;;;;;;;4.20;1.92;;;;;;;28.83;33.26;100329.34;1742852;82;21017;-60
2023/08/22 08:31:19;;;;;;;3.55;1.60;;;;;;;28.99;33.41;100330.06;1742913;82;21033;-60
2023/08/22 08:33:48;;;;;;;4.35;1.70;;;;;;;29.00;33.16;100335.13;1746219;81;21527;-62
2023/08/22 08:36:19;;;;;;;3.58;1.60;;;;;;;29.06;32.50;100323.96;1748340;81;21018;-63
2023/08/22 08:38:59;;;;;;;4.20;2.55;;;;;;;29.02;32.31;100320.95;1747991;81;21104;-63
2023/08/22 08:41:33;;;;;;;4.97;1.95;;;;;;;29.06;33.16;100334.41;1744297;81;21016;-63
2023/08/22 08:44:03;;;;;;;7.03;2.00;;;;;;;29.19;32.00;100330.67;1726227;81;21095;-64
2023/08/22 08:46:32;;;;;;;3.98;1.70;;;;;;;29.12;31.31;100332.55;1771153;81;21067;-63
2023/08/22 08:49:01;;;;;;;5.17;1.80;;;;;;;28.88;31.35;100333.47;1771323;81;21463;-63
2023/08/22 08:51:30;;;;;;;4.30;1.72;;;;;;;28.69;32.18;100332.23;1762831;81;20982;-68
2023/08/22 08:53:59;;;;;;;4.03;1.90;;;;;;;28.48;32.27;100328.22;1758156;81;21085;-63
2023/08/22 08:56:29;;;;;;;11.18;6.25;;;;;;;28.29;32.74;100326.98;1758157;81;21021;-62
2023/08/22 09:01:37;;;;;;;5.80;2.45;;;;;;;28.13;32.59;100329.86;1758189;81;21037;-62
2023/08/22 09:04:08;;;;;;;8.73;3.70;;;;;;;28.03;33.13;100343.02;1758163;81;21089;-62
2023/08/22 09:06:39;;;;;;;13.43;5.92;;;;;;;28.06;33.57;100339.58;1764377;80;21420;-63
2023/08/22 09:09:09;;;;;;;7.95;2.25;;;;;;;27.96;33.07;100335.58;1777588;80;21061;-63
2023/08/22 09:11:52;;;;;;;4.45;1.92;;;;;;;27.74;32.53;100336.30;1777094;81;21021;-63
2023/08/22 09:14:23;;;;;;;5.72;2.70;;;;;;;27.55;33.38;100338.36;1777175;80;21112;-62
2023/08/22 09:16:53;;;;;;;6.58;2.52;;;;;;;27.24;33.29;100330.23;1776876;81;21040;-62
2023/08/22 09:19:24;;;;;;;5.67;2.17;;;;;;;27.24;33.29;100330.23;1747345;81;21041;-64
2023/08/22 09:21:58;;;;;;;9.20;2.27;;;;;;;27.15;33.45;100337.14;1746770;81;21056;-64
2023/08/22 09:24:27;;;;;;;3.58;1.72;;;;;;;27.09;33.30;100332.75;1777316;81;21032;-63
2023/08/22 09:26:57;;;;;;;3.60;1.65;;;;;;;27.02;33.54;100340.75;1787488;80;21067;-63
2023/08/22 09:29:29;;;;;;;6.60;2.08;;;;;;;26.96;33.40;100337.73;1796468;80;21125;-65
2023/08/22 09:32:06;;;;;;;4.83;1.82;;;;;;;26.87;33.79;100333.97;1796446;80;21056;-63
2023/08/22 09:34:36;;;;;;;5.62;1.65;;;;;;;26.90;33.79;100326.32;1796255;80;21056;-62
2023/08/22 09:37:05;;;;;;;8.95;2.00;;;;;;;26.94;34.22;100338.63;1796541;80;21004;-63
2023/08/22 09:39:36;;;;;;;4.47;1.65;;;;;;;26.98;33.61;100329.86;1796352;80;21478;-63
2023/08/22 09:42:06;;;;;;;5.95;1.62;;;;;;;26.93;33.73;100325.70;1784494;80;21032;-61
2023/08/22 09:44:34;;;;;;;4.90;1.77;;;;;;;26.87;33.74;100332.56;1749901;82;21076;-62
2023/08/22 09:47:04;;;;;;;3.83;1.80;;;;;;;26.84;33.69;100332.03;1698933;84;21038;-63
2023/08/22 09:49:34;;;;;;;4.60;1.65;;;;;;;26.83;34.04;100334.58;1733814;81;21030;-63
2023/08/22 09:52:04;;;;;;;5.53;1.60;;;;;;;26.89;34.37;100325.48;1757854;81;21004;-65
2023/08/22 09:54:36;;;;;;;5.62;1.82;;;;;;;26.98;34.34;100328.45;1734360;81;21044;-64
2023/08/22 09:57:06;;;;;;;4.25;1.57;;;;;;;26.95;34.18;100320.61;1757832;81;21023;-62
2023/08/22 09:59:35;;;;;;;8.35;1.98;;;;;;;26.88;34.60;100321.00;1757534;81;21005;-63
2023/08/22 10:02:05;;;;;;;3.50;1.90;;;;;;;26.83;34.86;100331.77;1698956;84;21477;-64
2023/08/22 10:04:35;;;;;;;6.15;1.60;;;;;;;26.80;33.96;100330.14;1734536;81;21048;-62
2023/08/22 10:07:05;;;;;;;7.53;2.15;;;;;;;26.71;33.66;100328.61;1698794;84;21067;-64
2023/08/22 10:09:34;;;;;;;4.47;1.62;;;;;;;26.62;34.36;100319.17;1757684;81;21067;-63
2023/08/22 10:12:05;;;;;;;4.90;1.72;;;;;;;26.59;33.72;100324.00;1698710;84;21109;-62
2023/08/22 10:14:39;;;;;;;5.58;1.90;;;;;;;26.56;34.28;100333.05;1734944;81;21087;-63
2023/08/22 10:17:17;;;;;;;5.30;1.87;;;;;;;26.58;33.94;100328.52;1698766;84;21094;-64
2023/08/22 10:19:49;;;;;;;4.30;1.50;;;;;;;26.66;33.61;100341.34;1757628;81;21126;-63
2023/08/22 10:22:19;;;;;;;4.47;1.60;;;;;;;26.71;32.88;100344.07;1698728;84;21479;-65
2023/08/22 10:24:48;;;;;;;4.55;1.90;;;;;;;26.69;33.21;100337.92;1710960;81;21144;-63
2023/08/22 10:27:19;;;;;;;4.37;1.40;;;;;;;26.68;33.23;100353.11;1695811;84;21059;-62
2023/08/22 10:30:15;;;;;;;3.52;1.50;;;;;;;26.67;33.62;100335.15;1759921;81;21573;-63
2023/08/22 10:33:06;;;;;;;5.57;1.60;;;;;;;26.62;33.51;100338.84;1739979;82;21068;-63
2023/08/22 10:35:37;;;;;;;5.90;1.65;;;;;;;26.53;33.04;100328.87;1743009;82;21380;-62
2023/08/22 10:38:11;;;;;;;6.37;1.42;;;;;;;26.44;33.94;100355.16;1669978;82;21056;-63
2023/08/22 10:40:41;;;;;;;4.22;1.40;;;;;;;26.47;33.45;100330.66;1697996;82;21029;-61
2023/08/22 10:43:13;;;;;;;4.53;1.50;;;;;;;26.46;33.65;100343.05;1691113;81;21057;-61
2023/08/22 10:45:50;;;;;;;6.25;1.87;;;;;;;26.39;32.93;100327.14;1788061;80;21095;-63
2023/08/22 10:48:20;;;;;;;2.45;1.30;;;;;;;26.31;33.48;100339.86;1788353;80;21510;-61
2023/08/22 10:50:49;;;;;;;2.80;1.55;;;;;;;26.29;33.63;100339.91;1788543;80;21044;-61
2023/08/22 10:53:26;;;;;;;4.37;1.70;;;;;;;26.28;33.80;100340.47;1760222;80;21040;-62
2023/08/22 10:55:57;;;;;;;3.60;1.50;;;;;;;26.35;33.98;100331.13;1759646;80;21091;-63
2023/08/22 10:58:41;;;;;;;5.87;1.77;;;;;;;26.44;33.87;100337.73;1788430;80;21087;-63
2023/08/22 11:01:13;;;;;;;4.08;1.50;;;;;;;26.49;34.05;100338.22;1788395;80;21031;-62
2023/08/22 11:03:42;;;;;;;4.95;1.62;;;;;;;26.52;34.13;100344.63;1760541;80;20997;-66
2023/08/22 11:06:13;;;;;;;2.35;1.30;;;;;;;26.50;34.43;100345.51;1788270;80;21060;-62
2023/08/22 11:08:43;;;;;;;5.17;1.60;;;;;;;26.49;34.71;100344.67;1788574;80;21020;-62
2023/08/22 11:11:16;;;;;;;2.85;1.50;;;;;;;26.53;34.32;100328.87;1760096;80;21520;-63
2023/08/22 11:13:45;;;;;;;4.87;1.80;;;;;;;26.60;34.68;100324.84;1760037;80;21012;-60
2023/08/22 11:16:16;;;;;;;4.55;2.67;;;;;;;26.69;34.73;100323.86;1759980;80;21480;-58
2023/08/22 11:18:47;;;;;;;4.22;1.70;;;;;;;26.75;34.70;100330.23;1788122;80;21024;-62
2023/08/22 11:21:16;;;;;;;3.00;1.47;;;;;;;26.77;33.90;100320.92;1788083;80;21083;-61
2023/08/22 11:23:46;;;;;;;2.00;1.40;;;;;;;26.81;33.71;100328.43;1788183;80;21147;-62
2023/08/22 11:26:22;;;;;;;3.15;1.67;;;;;;;26.83;33.45;100323.34;1788344;80;20984;-62
2023/08/22 11:28:52;;;;;;;;;;;;;;;26.83;33.10;100329.53;1791009;80;21123;-60
2023/08/22 11:31:20;;;;;;;3.80;1.62;;;;;;;26.80;32.60;100313.28;1788134;80;20147;-62
2023/08/22 11:33:50;;;;;;;3.08;1.92;;;;;;;26.75;33.25;100328.83;1788156;80;21059;-62
2023/08/22 11:36:20;;;;;;;3.05;1.70;;;;;;;26.76;33.75;100321.48;1788267;80;21079;-62
2023/08/22 11:38:52;;;;;;;7.60;2.87;;;;;;;26.76;33.50;100314.46;1787894;80;21000;-62
2023/08/22 11:41:22;;;;;;;6.37;1.75;;;;;;;26.73;33.74;100313.67;1757567;80;21040;-62